International Virtual Aviation Organisation

Eastern Europe and Northern Asia MCD

 

Карточка аэропорта ULAA

Внимание!
Информация на этой странице в стадии наполнения.
Если вы не увидели какой-то информации, или заметили неточность - пожалуйста сообщите нам!
Спасибо!
Команда RU-STAFF
Название аэропортаТалаги
Название аэропорта (англ.)Talagi
Превышение62 ft. (18.9 m.)
Координаты64°36.018', 40°43.002'
Высота перехода3000FT
Эшелон переходаQFE>=760mm:FL040; QFE<760=>733:FL050; QFE<733:FL060
Коды ответчика3120-3127
Зона ОрВДАрхангельск РПИ (ULAA)
Данные METARULAA 131800Z VRB01MPS CAVOK 09/02 Q1016 R26/CLRD70 NOSIG RMK QFE761/1014
Проноз погоды (TAF)ULAA 131700Z 1318/1418 23003MPS 9999 BKN016 TEMPO 1318/1401 24003G09MPS 2000 SHRA BR FEW007 BKN016CB TEMPO 1406/1410 27003G09MPS 3100 -SHRA BKN011CB BECMG 1410/1411 27003G08MPS TEMPO 1411/1418 6000 -SHRA BKN016CB
NOTAMshow/hide NOTAM
AWOS   TABLE

Информация о ВПП


Диспетчерские позиции

Позывной Наименование органа УВД Частота
ULAA_APPАрхангельск-Подход122.0
ULAA_TWRАрхангельск-Вышка121.8



Спутниковое изображение